createdAt,value
2022-10-28T00:01:15.514Z,9.20
2022-10-28T00:03:52.954Z,9.20
2022-10-28T00:06:24.099Z,9.20
2022-10-28T00:08:52.488Z,9.20
2022-10-28T00:11:23.339Z,9.00
2022-10-28T00:13:53.663Z,8.90
2022-10-28T00:16:23.223Z,8.80
2022-10-28T00:18:53.829Z,8.80
2022-10-28T00:21:25.297Z,8.80
2022-10-28T00:23:53.856Z,8.80
2022-10-28T00:26:23.942Z,9.00
2022-10-28T00:28:53.963Z,9.10
2022-10-28T00:31:23.851Z,9.10
2022-10-28T00:33:52.077Z,9.10
2022-10-28T00:36:24.309Z,9.10
2022-10-28T00:38:54.654Z,9.10
2022-10-28T00:41:24.423Z,9.20
2022-10-28T00:43:54.580Z,9.30
2022-10-28T00:46:29.706Z,9.30
2022-10-28T00:49:04.028Z,9.20
2022-10-28T00:51:36.281Z,9.30
2022-10-28T00:54:06.583Z,9.30
2022-10-28T00:56:38.828Z,9.20
2022-10-28T00:59:12.531Z,9.20
2022-10-28T01:01:41.207Z,9.30
2022-10-28T01:04:10.030Z,9.30
2022-10-28T01:06:40.246Z,9.20
2022-10-28T01:09:09.003Z,9.20
2022-10-28T01:11:55.909Z,9.20
2022-10-28T01:14:37.623Z,9.20
2022-10-28T01:17:31.754Z,9.10
2022-10-28T01:20:42.394Z,9.00
2022-10-28T01:23:22.691Z,9.10
2022-10-28T01:26:16.838Z,9.10
2022-10-28T01:29:20.504Z,9.10
2022-10-28T01:31:52.735Z,9.10
2022-10-28T01:34:28.539Z,9.00
2022-10-28T01:37:02.333Z,9.00
2022-10-28T01:39:36.343Z,8.90
2022-10-28T01:42:15.453Z,8.90
2022-10-28T01:44:49.548Z,8.70
2022-10-28T01:47:24.276Z,8.70
2022-10-28T01:49:57.441Z,8.70
2022-10-28T01:52:28.462Z,8.80
2022-10-28T01:55:11.627Z,8.80
2022-10-28T01:57:41.941Z,8.80
2022-10-28T02:00:15.295Z,8.80
2022-10-28T02:02:47.687Z,8.80
2022-10-28T02:05:39.352Z,8.90
2022-10-28T02:08:28.075Z,8.80
2022-10-28T02:11:07.613Z,8.60
2022-10-28T02:13:45.013Z,8.60
2022-10-28T02:16:24.570Z,8.70
2022-10-28T02:19:03.647Z,8.70
2022-10-28T02:21:41.664Z,8.50
2022-10-28T02:24:16.977Z,8.50
2022-10-28T02:26:52.528Z,8.50
2022-10-28T02:29:29.886Z,8.50
2022-10-28T02:32:03.477Z,8.60
2022-10-28T02:34:38.352Z,8.60
2022-10-28T02:37:13.198Z,8.70
2022-10-28T02:39:45.746Z,8.80
2022-10-28T02:42:18.855Z,8.80
2022-10-28T02:44:52.504Z,8.70
2022-10-28T02:47:24.575Z,8.70
2022-10-28T02:50:00.348Z,8.70
2022-10-28T02:52:32.522Z,8.70
2022-10-28T02:55:04.831Z,8.70
2022-10-28T02:57:36.439Z,8.60
2022-10-28T03:00:08.574Z,8.60
2022-10-28T03:02:37.192Z,8.60
2022-10-28T03:05:08.045Z,8.60
2022-10-28T03:07:36.011Z,8.60
2022-10-28T03:10:04.428Z,8.60
2022-10-28T03:12:32.443Z,8.50
2022-10-28T03:15:01.952Z,8.50
2022-10-28T03:17:30.321Z,8.50
2022-10-28T03:19:58.363Z,8.60
2022-10-28T03:22:27.632Z,8.50
2022-10-28T03:24:55.971Z,8.40
2022-10-28T03:27:24.675Z,8.50
2022-10-28T03:29:52.955Z,8.40
2022-10-28T03:34:50.172Z,8.40
2022-10-28T03:37:18.201Z,8.30
2022-10-28T03:39:47.770Z,8.20
2022-10-28T03:42:15.826Z,8.30
2022-10-28T03:44:43.795Z,8.50
2022-10-28T03:47:11.831Z,8.60
2022-10-28T03:49:39.898Z,8.30
2022-10-28T03:52:07.865Z,8.30
2022-10-28T03:54:35.789Z,8.50
2022-10-28T03:57:05.121Z,8.60
2022-10-28T03:59:33.279Z,8.60
2022-10-28T04:02:01.850Z,8.60
2022-10-28T04:04:30.895Z,8.60
2022-10-28T04:06:58.987Z,8.50
2022-10-28T04:09:27.510Z,8.30
2022-10-28T04:11:55.536Z,8.50
2022-10-28T04:14:27.002Z,8.70
2022-10-28T04:16:55.072Z,8.40
2022-10-28T04:19:23.213Z,8.40
2022-10-28T04:21:55.286Z,8.50
2022-10-28T04:24:26.736Z,8.50
2022-10-28T04:26:58.186Z,8.70
2022-10-28T04:29:27.815Z,8.80
2022-10-28T04:31:58.680Z,8.80
2022-10-28T04:34:26.742Z,8.70
2022-10-28T04:36:56.994Z,8.60
2022-10-28T04:39:25.368Z,8.60
2022-10-28T04:41:53.302Z,8.30
2022-10-28T04:44:21.290Z,8.30
2022-10-28T04:46:50.575Z,8.50
2022-10-28T04:49:18.686Z,8.70
2022-10-28T04:54:14.794Z,8.90
2022-10-28T04:56:42.880Z,8.90
2022-10-28T04:59:10.880Z,8.80
2022-10-28T05:01:39.234Z,8.80
2022-10-28T05:04:09.807Z,8.90
2022-10-28T05:06:38.785Z,8.80
2022-10-28T05:09:06.811Z,8.80
2022-10-28T05:11:34.822Z,8.80
2022-10-28T05:14:02.803Z,8.80
2022-10-28T05:16:30.975Z,8.80
2022-10-28T05:18:59.342Z,8.80
2022-10-28T05:21:28.846Z,8.90
2022-10-28T05:23:57.134Z,8.90
2022-10-28T05:26:25.400Z,8.90
2022-10-28T05:28:53.392Z,8.70
2022-10-28T05:31:21.595Z,8.90
2022-10-28T05:33:49.546Z,8.90
2022-10-28T05:36:17.487Z,8.90
2022-10-28T05:38:47.039Z,8.90
2022-10-28T05:41:14.955Z,8.90
2022-10-28T05:43:43.405Z,9.00
2022-10-28T05:46:11.658Z,8.90
2022-10-28T05:48:39.648Z,8.70
2022-10-28T05:51:07.700Z,8.70
2022-10-28T05:53:41.875Z,8.80
2022-10-28T05:56:11.605Z,8.80
2022-10-28T05:58:40.087Z,8.80
2022-10-28T06:01:08.893Z,8.80
2022-10-28T06:03:37.204Z,8.90
2022-10-28T06:06:05.380Z,8.90
2022-10-28T06:08:33.605Z,8.90
2022-10-28T06:11:00.916Z,8.90
2022-10-28T06:13:30.452Z,8.90
2022-10-28T06:15:58.423Z,8.90
2022-10-28T06:18:29.654Z,9.00
2022-10-28T06:20:58.657Z,9.00
2022-10-28T06:23:28.120Z,9.00
2022-10-28T06:28:26.425Z,9.00
2022-10-28T06:31:01.641Z,9.00
2022-10-28T06:33:29.913Z,9.00
2022-10-28T06:35:58.902Z,8.90
2022-10-28T06:38:27.789Z,8.90
2022-10-28T06:41:00.519Z,8.70
2022-10-28T06:43:28.488Z,8.80
2022-10-28T06:46:00.846Z,8.90
2022-10-28T06:48:30.933Z,8.90
2022-10-28T06:50:59.153Z,8.50
2022-10-28T06:53:27.525Z,8.60
2022-10-28T06:55:56.254Z,8.70
2022-10-28T06:58:24.932Z,8.80
2022-10-28T07:00:53.769Z,8.80
2022-10-28T07:03:23.904Z,8.80
2022-10-28T07:05:51.877Z,8.70
2022-10-28T07:08:19.983Z,8.90
2022-10-28T07:10:57.304Z,8.80
2022-10-28T07:13:26.142Z,8.80
2022-10-28T07:15:54.724Z,8.90
2022-10-28T07:18:25.213Z,9.00
2022-10-28T07:20:53.357Z,9.00
2022-10-28T07:23:22.365Z,9.00
2022-10-28T07:28:28.611Z,8.90
2022-10-28T07:31:02.518Z,9.00
2022-10-28T07:33:32.331Z,9.10
2022-10-28T07:36:00.570Z,9.20
2022-10-28T07:38:28.658Z,9.20
2022-10-28T07:40:56.912Z,9.30
2022-10-28T07:43:24.885Z,9.40
2022-10-28T07:45:57.813Z,9.20
2022-10-28T07:48:25.960Z,9.30
2022-10-28T07:50:55.606Z,9.40
2022-10-28T07:53:26.189Z,9.50
2022-10-28T07:55:58.096Z,9.40
2022-10-28T07:58:26.362Z,9.50
2022-10-28T08:00:54.692Z,9.60
2022-10-28T08:03:31.181Z,9.70
2022-10-28T08:06:09.226Z,9.80
2022-10-28T08:08:37.879Z,9.60
2022-10-28T08:11:12.862Z,9.50
2022-10-28T08:13:41.045Z,9.40
2022-10-28T08:16:09.786Z,9.40
2022-10-28T08:18:38.710Z,9.50
2022-10-28T08:21:10.354Z,9.70
2022-10-28T08:23:39.372Z,9.90
2022-10-28T08:26:08.049Z,9.90
2022-10-28T08:28:37.258Z,10.10
2022-10-28T08:31:09.407Z,10.00
2022-10-28T08:33:37.998Z,9.80
2022-10-28T08:36:09.161Z,9.70
2022-10-28T08:38:40.513Z,10.00
2022-10-28T08:41:24.036Z,10.40
2022-10-28T08:44:11.733Z,10.50
2022-10-28T08:46:53.533Z,10.50
2022-10-28T08:49:24.678Z,10.60
2022-10-28T08:51:58.113Z,10.50
2022-10-28T08:54:32.341Z,10.60
2022-10-28T08:57:02.400Z,10.30
2022-10-28T08:59:33.805Z,10.40
2022-10-28T09:02:06.663Z,10.50
2022-10-28T09:04:39.948Z,10.50
2022-10-28T09:07:14.848Z,10.60
2022-10-28T09:09:42.828Z,10.70
2022-10-28T09:12:25.492Z,10.70
2022-10-28T09:15:13.872Z,10.70
2022-10-28T09:17:52.808Z,10.80
2022-10-28T09:20:27.099Z,10.70
2022-10-28T09:22:59.760Z,10.80
2022-10-28T09:25:37.698Z,10.80
2022-10-28T09:28:20.983Z,10.60
2022-10-28T09:30:56.853Z,10.70
2022-10-28T09:33:45.233Z,10.70
2022-10-28T09:36:18.143Z,10.60
2022-10-28T09:38:48.267Z,10.70
2022-10-28T09:41:20.503Z,10.50
2022-10-28T09:43:51.992Z,10.60
2022-10-28T09:46:22.036Z,10.50
2022-10-28T09:48:52.894Z,10.60
2022-10-28T09:51:29.905Z,10.70
2022-10-28T09:54:00.553Z,10.50
2022-10-28T09:56:30.620Z,10.50
2022-10-28T09:59:00.884Z,10.60
2022-10-28T10:01:32.287Z,10.70
2022-10-28T10:04:00.609Z,10.70
2022-10-28T10:06:33.521Z,10.70
2022-10-28T10:09:03.454Z,10.90
2022-10-28T10:11:37.288Z,11.00
2022-10-28T10:14:08.667Z,11.10
2022-10-28T10:16:42.359Z,11.20
2022-10-28T10:19:12.122Z,11.10
2022-10-28T10:21:46.247Z,11.00
2022-10-28T10:24:27.450Z,11.00
2022-10-28T10:26:55.845Z,11.10
2022-10-28T10:29:24.373Z,11.20
2022-10-28T10:32:06.539Z,11.30
2022-10-28T10:34:35.019Z,11.30
2022-10-28T10:37:05.042Z,11.30
2022-10-28T10:39:38.846Z,11.30
2022-10-28T10:42:17.561Z,11.20
2022-10-28T10:44:46.194Z,11.20
2022-10-28T10:47:23.043Z,11.20
2022-10-28T10:49:52.006Z,11.20
2022-10-28T10:52:24.268Z,11.30
2022-10-28T10:55:05.501Z,11.40
2022-10-28T10:57:34.513Z,11.40
2022-10-28T11:00:02.692Z,11.50
2022-10-28T11:02:35.560Z,11.70
2022-10-28T11:05:07.642Z,11.70
2022-10-28T11:07:37.139Z,11.70
2022-10-28T11:10:08.091Z,11.70
2022-10-28T11:12:37.406Z,11.60
2022-10-28T11:15:21.464Z,11.60
2022-10-28T11:17:59.133Z,11.70
2022-10-28T11:20:31.390Z,11.80
2022-10-28T11:23:14.230Z,11.90
2022-10-28T11:25:46.826Z,12.00
2022-10-28T11:28:34.888Z,11.90
2022-10-28T11:31:16.155Z,12.00
2022-10-28T11:33:51.421Z,12.00
2022-10-28T11:36:24.963Z,12.00
2022-10-28T11:39:24.013Z,12.00
2022-10-28T11:42:13.508Z,12.10
2022-10-28T11:44:53.900Z,12.10
2022-10-28T11:47:36.695Z,12.20
2022-10-28T11:50:39.752Z,12.20
2022-10-28T11:53:42.361Z,12.20
2022-10-28T11:56:22.813Z,12.30
2022-10-28T11:59:05.401Z,12.30
2022-10-28T12:01:45.831Z,12.30
2022-10-28T12:04:33.999Z,12.20
2022-10-28T12:07:35.972Z,12.30
2022-10-28T12:10:29.594Z,12.30
2022-10-28T12:13:11.199Z,12.40
2022-10-28T12:15:50.997Z,12.30
2022-10-28T12:18:24.281Z,12.30
2022-10-28T12:20:58.786Z,12.20
2022-10-28T12:23:28.720Z,12.30
2022-10-28T12:25:59.192Z,12.40
2022-10-28T12:28:34.720Z,12.30
2022-10-28T12:31:05.165Z,12.40
2022-10-28T12:33:40.581Z,12.40
2022-10-28T12:36:20.896Z,12.40
2022-10-28T12:38:56.959Z,12.50
2022-10-28T12:41:27.784Z,12.50
2022-10-28T12:44:01.999Z,12.40
2022-10-28T12:49:24.873Z,12.40
2022-10-28T12:51:54.022Z,12.50
2022-10-28T12:54:28.759Z,12.60
2022-10-28T12:57:04.514Z,12.50
2022-10-28T12:59:38.109Z,12.40
2022-10-28T13:02:17.197Z,12.40
2022-10-28T13:04:46.405Z,12.30
2022-10-28T13:07:29.754Z,12.30
2022-10-28T13:10:12.179Z,12.20
2022-10-28T13:13:05.241Z,12.10
2022-10-28T13:15:59.041Z,12.20
2022-10-28T13:19:06.350Z,12.10
2022-10-28T13:21:50.282Z,12.10
2022-10-28T13:24:25.361Z,12.10
2022-10-28T13:26:53.627Z,12.10
2022-10-28T13:29:24.801Z,12.10
2022-10-28T13:31:54.756Z,12.20
2022-10-28T13:34:32.881Z,12.10
2022-10-28T13:37:03.758Z,12.10
2022-10-28T13:39:44.645Z,12.10
2022-10-28T13:42:33.266Z,12.20
2022-10-28T13:45:02.319Z,12.30
2022-10-28T13:47:32.380Z,12.30
2022-10-28T13:50:40.134Z,12.40
2022-10-28T13:53:42.989Z,12.30
2022-10-28T13:56:23.227Z,12.30
2022-10-28T13:58:54.333Z,12.30
2022-10-28T14:02:01.874Z,12.20
2022-10-28T14:04:40.866Z,12.10
2022-10-28T14:07:22.617Z,12.00
2022-10-28T14:09:54.852Z,11.90
2022-10-28T14:12:26.848Z,12.00
2022-10-28T14:15:00.026Z,11.90
2022-10-28T14:17:35.456Z,11.80
2022-10-28T14:20:06.855Z,11.80
2022-10-28T14:22:38.032Z,11.60
2022-10-28T14:25:50.368Z,11.50
2022-10-28T14:28:53.469Z,11.50
2022-10-28T14:31:41.153Z,11.40
2022-10-28T14:34:44.667Z,11.30
2022-10-28T14:37:48.894Z,11.40
2022-10-28T14:40:33.522Z,11.30
2022-10-28T14:43:18.952Z,11.30
2022-10-28T14:45:58.778Z,11.30
2022-10-28T14:48:48.356Z,11.30
2022-10-28T14:51:18.831Z,11.30
2022-10-28T14:53:51.597Z,11.30
2022-10-28T14:58:59.971Z,11.00
2022-10-28T15:01:37.597Z,11.10
2022-10-28T15:04:13.282Z,11.10
2022-10-28T15:06:44.409Z,11.10
2022-10-28T15:09:21.971Z,11.00
2022-10-28T15:11:55.718Z,11.10
2022-10-28T15:14:33.614Z,11.00
2022-10-28T15:17:13.615Z,10.90
2022-10-28T15:19:44.183Z,11.00
2022-10-28T15:22:16.562Z,10.90
2022-10-28T15:24:57.539Z,10.90
2022-10-28T15:27:28.061Z,10.80
2022-10-28T15:29:56.689Z,10.70
2022-10-28T15:32:30.494Z,10.70
2022-10-28T15:34:59.094Z,10.60
2022-10-28T15:37:29.437Z,10.60
2022-10-28T15:40:24.571Z,10.50
2022-10-28T15:42:58.014Z,10.50
2022-10-28T15:45:28.179Z,10.50
2022-10-28T15:47:57.934Z,10.50
2022-10-28T15:50:31.766Z,10.50
2022-10-28T15:53:23.361Z,10.60
2022-10-28T15:56:10.589Z,10.50
2022-10-28T15:58:42.935Z,10.40
2022-10-28T16:01:28.187Z,10.30
2022-10-28T16:03:56.304Z,10.40
2022-10-28T16:06:27.904Z,10.40
2022-10-28T16:09:08.403Z,10.40
2022-10-28T16:11:43.300Z,10.40
2022-10-28T16:14:31.506Z,10.40
2022-10-28T16:19:41.994Z,10.30
2022-10-28T16:22:13.752Z,10.30
2022-10-28T16:24:42.245Z,10.40
2022-10-28T16:27:17.673Z,10.40
2022-10-28T16:29:45.668Z,10.40
2022-10-28T16:32:15.240Z,10.40
2022-10-28T16:34:43.229Z,10.40
2022-10-28T16:37:21.188Z,10.40
2022-10-28T16:39:49.607Z,10.30
2022-10-28T16:42:20.342Z,10.30
2022-10-28T16:44:48.348Z,10.30
2022-10-28T16:47:18.058Z,10.30
2022-10-28T16:49:52.384Z,10.20
2022-10-28T16:52:25.940Z,10.20
2022-10-28T16:54:54.060Z,10.20
2022-10-28T16:59:56.901Z,10.10
2022-10-28T17:02:28.900Z,10.10
2022-10-28T17:04:57.974Z,10.20
2022-10-28T17:07:26.264Z,10.20
2022-10-28T17:09:54.888Z,10.20
2022-10-28T17:12:26.840Z,10.10
2022-10-28T17:14:55.257Z,10.10
2022-10-28T17:17:23.621Z,10.00
2022-10-28T17:19:51.558Z,10.00
2022-10-28T17:22:19.597Z,9.90
2022-10-28T17:24:47.836Z,9.90
2022-10-28T17:27:16.249Z,9.80
2022-10-28T17:29:46.294Z,9.80
2022-10-28T17:32:15.286Z,9.80
2022-10-28T17:34:43.556Z,9.80
2022-10-28T17:37:11.925Z,9.70
2022-10-28T17:39:40.058Z,9.80
2022-10-28T17:42:08.429Z,9.80
2022-10-28T17:44:37.262Z,9.70
2022-10-28T17:47:07.016Z,9.70
2022-10-28T17:49:36.449Z,9.80
2022-10-28T17:52:04.592Z,9.80
2022-10-28T17:54:32.727Z,9.80
2022-10-28T17:57:00.850Z,9.80
2022-10-28T17:59:29.414Z,9.70
2022-10-28T18:01:58.143Z,9.70
2022-10-28T18:04:28.809Z,9.70
2022-10-28T18:06:58.637Z,9.80
2022-10-28T18:09:28.182Z,9.80
2022-10-28T18:11:56.376Z,9.80
2022-10-28T18:14:24.822Z,9.80
2022-10-28T18:16:52.831Z,9.80
2022-10-28T18:19:21.065Z,9.80
2022-10-28T18:21:51.862Z,9.80
2022-10-28T18:24:23.330Z,9.80
2022-10-28T18:26:55.790Z,9.80
2022-10-28T18:29:23.837Z,9.80
2022-10-28T18:31:52.204Z,9.80
2022-10-28T18:34:21.216Z,9.70
2022-10-28T18:36:49.716Z,9.70
2022-10-28T18:39:19.621Z,9.70
2022-10-28T18:41:47.685Z,9.70
2022-10-28T18:44:19.941Z,9.80
2022-10-28T18:46:48.052Z,9.70
2022-10-28T18:49:15.988Z,9.70
2022-10-28T18:51:43.980Z,9.70
2022-10-28T18:54:12.001Z,9.70
2022-10-28T18:56:44.809Z,9.70
2022-10-28T18:59:15.818Z,9.70
2022-10-28T19:01:46.572Z,9.70
2022-10-28T19:04:15.169Z,9.60
2022-10-28T19:06:43.206Z,9.70
2022-10-28T19:09:11.156Z,9.70
2022-10-28T19:11:39.187Z,9.60
2022-10-28T19:14:09.156Z,9.50
2022-10-28T19:16:37.161Z,9.60
2022-10-28T19:19:06.441Z,9.50
2022-10-28T19:21:35.343Z,9.50
2022-10-28T19:24:05.271Z,9.50
2022-10-28T19:26:34.294Z,9.50
2022-10-28T19:29:11.918Z,9.40
2022-10-28T19:31:41.777Z,9.30
2022-10-28T19:34:10.712Z,9.40
2022-10-28T19:36:39.165Z,9.50
2022-10-28T19:39:07.541Z,9.40
2022-10-28T19:41:35.755Z,9.50
2022-10-28T19:44:05.126Z,9.50
2022-10-28T19:46:36.348Z,9.50
2022-10-28T19:49:06.230Z,9.30
2022-10-28T19:51:36.242Z,9.50
2022-10-28T19:54:06.616Z,9.50
2022-10-28T19:56:36.214Z,9.60
2022-10-28T19:59:05.708Z,9.50
2022-10-28T20:01:37.269Z,9.60
2022-10-28T20:04:06.319Z,9.50
2022-10-28T20:06:36.353Z,9.50
2022-10-28T20:09:07.832Z,9.50
2022-10-28T20:11:38.475Z,9.50
2022-10-28T20:14:09.438Z,9.40
2022-10-28T20:16:41.832Z,9.40
2022-10-28T20:19:10.092Z,9.40
2022-10-28T20:21:38.454Z,9.30
2022-10-28T20:24:07.896Z,9.30
2022-10-28T20:26:37.205Z,9.30
2022-10-28T20:29:06.626Z,9.20
2022-10-28T20:31:34.756Z,9.20
2022-10-28T20:34:05.575Z,9.30
2022-10-28T20:36:36.472Z,9.20
2022-10-28T20:39:08.023Z,9.20
2022-10-28T20:41:37.622Z,9.30
2022-10-28T20:44:06.601Z,9.30
2022-10-28T20:46:35.893Z,9.30
2022-10-28T20:49:06.242Z,9.30
2022-10-28T20:51:34.516Z,9.40
2022-10-28T20:54:03.001Z,9.40
2022-10-28T20:56:32.496Z,9.40
2022-10-28T20:59:00.986Z,9.40
2022-10-28T21:01:30.640Z,9.40
2022-10-28T21:04:00.383Z,9.30
2022-10-28T21:06:30.270Z,9.30
2022-10-28T21:08:58.756Z,9.40
2022-10-28T21:11:28.327Z,9.40
2022-10-28T21:13:58.140Z,9.40
2022-10-28T21:16:26.982Z,9.40
2022-10-28T21:18:55.358Z,9.40
2022-10-28T21:21:24.478Z,9.30
2022-10-28T21:23:54.250Z,9.30
2022-10-28T21:26:22.236Z,9.30
2022-10-28T21:28:51.751Z,9.20
2022-10-28T21:31:20.598Z,9.20
2022-10-28T21:36:19.263Z,9.20
2022-10-28T21:38:47.728Z,9.20
2022-10-28T21:41:19.313Z,9.20
2022-10-28T21:43:48.700Z,9.20
2022-10-28T21:46:17.632Z,9.10
2022-10-28T21:48:45.922Z,9.10
2022-10-28T21:51:15.849Z,9.00
2022-10-28T21:53:44.961Z,9.10
2022-10-28T21:56:18.283Z,9.10
2022-10-28T21:58:49.214Z,9.10
2022-10-28T22:01:18.969Z,9.10
2022-10-28T22:03:47.883Z,9.10
2022-10-28T22:06:16.112Z,9.10
2022-10-28T22:08:45.240Z,9.10
2022-10-28T22:11:15.238Z,9.10
2022-10-28T22:13:43.811Z,9.10
2022-10-28T22:16:15.313Z,9.00
2022-10-28T22:18:43.416Z,9.00
2022-10-28T22:21:14.017Z,8.90
2022-10-28T22:23:42.050Z,8.90
2022-10-28T22:26:12.125Z,9.00
2022-10-28T22:28:40.300Z,9.10
2022-10-28T22:31:10.241Z,9.10
2022-10-28T22:33:40.267Z,9.00
2022-10-28T22:36:10.678Z,9.00
2022-10-28T22:38:39.216Z,9.00
2022-10-28T22:41:11.825Z,9.00
2022-10-28T22:43:40.421Z,9.00
2022-10-28T22:46:08.440Z,9.10
2022-10-28T22:48:36.782Z,9.10
2022-10-28T22:51:06.794Z,9.00
2022-10-28T22:53:35.049Z,9.00
2022-10-28T22:56:03.346Z,9.00
2022-10-28T22:58:31.328Z,9.00
2022-10-28T23:01:07.000Z,9.00
2022-10-28T23:03:39.471Z,9.00
2022-10-28T23:06:10.436Z,9.00
2022-10-28T23:08:47.141Z,9.00
2022-10-28T23:11:16.759Z,8.90
2022-10-28T23:13:44.870Z,9.00
2022-10-28T23:16:14.666Z,9.00
2022-10-28T23:18:43.088Z,9.00
2022-10-28T23:21:14.545Z,9.10
2022-10-28T23:23:49.611Z,9.20
2022-10-28T23:26:21.164Z,9.10
2022-10-28T23:28:52.790Z,9.00
2022-10-28T23:31:21.615Z,9.00
2022-10-28T23:33:49.946Z,9.00
2022-10-28T23:36:19.364Z,9.00
2022-10-28T23:38:47.525Z,8.90
2022-10-28T23:41:18.696Z,8.90
2022-10-28T23:43:48.716Z,8.90
2022-10-28T23:46:17.363Z,8.80
2022-10-28T23:48:47.659Z,8.80
2022-10-28T23:51:15.906Z,8.80
2022-10-28T23:53:45.300Z,8.90
2022-10-28T23:56:13.481Z,8.80
2022-10-28T23:58:41.821Z,8.80
